sensor_id;sensor_type;location;lat;lon;timestamp;pressure;altitude;pressure_sealevel;temperature;humidity
69574;BME280;62840;52.366;5.980;2023-05-25T00:00:26;102535.25;;;9.25;64.23
69574;BME280;62840;52.366;5.980;2023-05-25T00:03:02;102535.47;;;9.20;64.22
69574;BME280;62840;52.366;5.980;2023-05-25T00:05:30;102534.75;;;9.17;64.42
69574;BME280;62840;52.366;5.980;2023-05-25T00:08:05;102539.38;;;9.13;64.34
69574;BME280;62840;52.366;5.980;2023-05-25T00:10:39;102535.03;;;9.11;64.43
69574;BME280;62840;52.366;5.980;2023-05-25T00:13:14;102539.59;;;9.09;64.55
69574;BME280;62840;52.366;5.980;2023-05-25T00:15:49;102541.47;;;9.07;64.71
69574;BME280;62840;52.366;5.980;2023-05-25T00:18:23;102542.47;;;9.04;64.71
69574;BME280;62840;52.366;5.980;2023-05-25T00:20:54;102542.56;;;9.03;64.64
69574;BME280;62840;52.366;5.980;2023-05-25T00:23:33;102533.78;;;9.00;64.72
69574;BME280;62840;52.366;5.980;2023-05-25T00:26:37;102539.13;;;9.00;64.71
69574;BME280;62840;52.366;5.980;2023-05-25T00:29:08;102539.28;;;8.97;64.84
69574;BME280;62840;52.366;5.980;2023-05-25T00:31:40;102542.84;;;8.96;64.77
69574;BME280;62840;52.366;5.980;2023-05-25T00:34:25;102543.00;;;8.93;64.73
69574;BME280;62840;52.366;5.980;2023-05-25T00:37:00;102543.13;;;8.90;64.77
69574;BME280;62840;52.366;5.980;2023-05-25T00:39:34;102552.94;;;8.90;64.84
69574;BME280;62840;52.366;5.980;2023-05-25T00:42:07;102551.28;;;8.87;64.85
69574;BME280;62840;52.366;5.980;2023-05-25T00:44:43;102546.13;;;8.84;64.85
69574;BME280;62840;52.366;5.980;2023-05-25T00:47:36;102551.50;;;8.83;64.88
69574;BME280;62840;52.366;5.980;2023-05-25T00:50:11;102554.22;;;8.81;64.89
69574;BME280;62840;52.366;5.980;2023-05-25T00:52:49;102555.97;;;8.82;64.83
69574;BME280;62840;52.366;5.980;2023-05-25T00:55:28;102556.03;;;8.80;64.97
69574;BME280;62840;52.366;5.980;2023-05-25T00:58:07;102554.22;;;8.81;64.99
69574;BME280;62840;52.366;5.980;2023-05-25T01:00:45;102548.13;;;8.79;64.96
69574;BME280;62840;52.366;5.980;2023-05-25T01:03:25;102552.66;;;8.77;65.13
69574;BME280;62840;52.366;5.980;2023-05-25T01:06:10;102549.22;;;8.75;65.14
69574;BME280;62840;52.366;5.980;2023-05-25T01:09:00;102560.94;;;8.71;65.16
69574;BME280;62840;52.366;5.980;2023-05-25T01:11:38;102557.47;;;8.69;65.15
69574;BME280;62840;52.366;5.980;2023-05-25T01:14:07;102561.06;;;8.68;65.16
69574;BME280;62840;52.366;5.980;2023-05-25T01:16:51;102563.72;;;8.68;65.27
69574;BME280;62840;52.366;5.980;2023-05-25T01:19:38;102570.16;;;8.64;65.19
69574;BME280;62840;52.366;5.980;2023-05-25T01:22:21;102564.94;;;8.61;65.24
69574;BME280;62840;52.366;5.980;2023-05-25T01:24:53;102567.75;;;8.57;65.22
69574;BME280;62840;52.366;5.980;2023-05-25T01:27:42;102564.31;;;8.55;65.49
69574;BME280;62840;52.366;5.980;2023-05-25T01:30:21;102566.19;;;8.53;65.47
69574;BME280;62840;52.366;5.980;2023-05-25T01:33:01;102561.00;;;8.50;65.51
69574;BME280;62840;52.366;5.980;2023-05-25T01:35:39;102557.56;;;8.48;65.60
69574;BME280;62840;52.366;5.980;2023-05-25T01:38:20;102562.00;;;8.48;65.64
69574;BME280;62840;52.366;5.980;2023-05-25T01:40:49;102555.81;;;8.47;65.67
69574;BME280;62840;52.366;5.980;2023-05-25T01:43:19;102559.41;;;8.46;65.47
69574;BME280;62840;52.366;5.980;2023-05-25T01:45:49;102555.97;;;8.44;65.69
69574;BME280;62840;52.366;5.980;2023-05-25T01:48:44;102557.84;;;8.42;65.80
69574;BME280;62840;52.366;5.980;2023-05-25T01:51:25;102560.69;;;8.37;65.54
69574;BME280;62840;52.366;5.980;2023-05-25T01:54:08;102557.25;;;8.35;65.58
69574;BME280;62840;52.366;5.980;2023-05-25T01:59:32;102577.94;;;8.29;65.87
69574;BME280;62840;52.366;5.980;2023-05-25T02:02:09;102570.91;;;8.28;65.80
69574;BME280;62840;52.366;5.980;2023-05-25T02:04:41;102571.81;;;8.27;65.84
69574;BME280;62840;52.366;5.980;2023-05-25T02:07:16;102574.53;;;8.25;65.85
69574;BME280;62840;52.366;5.980;2023-05-25T02:09:52;102569.31;;;8.24;65.90
69574;BME280;62840;52.366;5.980;2023-05-25T02:12:27;102572.88;;;8.23;66.01
69574;BME280;62840;52.366;5.980;2023-05-25T02:14:57;102575.63;;;8.21;65.86
69574;BME280;62840;52.366;5.980;2023-05-25T02:17:34;102572.19;;;8.19;66.02
69574;BME280;62840;52.366;5.980;2023-05-25T02:20:08;102580.06;;;8.21;66.06
69574;BME280;62840;52.366;5.980;2023-05-25T02:22:44;102569.56;;;8.17;66.01
69574;BME280;62840;52.366;5.980;2023-05-25T02:25:15;102571.44;;;8.15;66.09
69574;BME280;62840;52.366;5.980;2023-05-25T02:27:44;102583.81;;;8.16;66.15
69574;BME280;62840;52.366;5.980;2023-05-25T02:30:21;102578.50;;;8.16;66.18
69574;BME280;62840;52.366;5.980;2023-05-25T02:32:54;102587.38;;;8.15;65.93
69574;BME280;62840;52.366;5.980;2023-05-25T02:35:24;102589.25;;;8.13;65.90
69574;BME280;62840;52.366;5.980;2023-05-25T02:38:09;102586.59;;;8.13;66.07
69574;BME280;62840;52.366;5.980;2023-05-25T02:40:42;102578.63;;;8.13;66.11
69574;BME280;62840;52.366;5.980;2023-05-25T02:43:33;102586.69;;;8.12;66.27
69574;BME280;62840;52.366;5.980;2023-05-25T02:46:09;102587.66;;;8.09;65.99
69574;BME280;62840;52.366;5.980;2023-05-25T02:48:56;102585.06;;;8.08;66.17
69574;BME280;62840;52.366;5.980;2023-05-25T02:51:39;102586.09;;;8.05;66.26
69574;BME280;62840;52.366;5.980;2023-05-25T02:54:13;102594.13;;;8.04;66.21
69574;BME280;62840;52.366;5.980;2023-05-25T02:56:56;102593.38;;;8.00;66.25
69574;BME280;62840;52.366;5.980;2023-05-25T02:59:30;102593.38;;;8.00;66.30
69574;BME280;62840;52.366;5.980;2023-05-25T03:02:05;102599.56;;;8.01;66.42
69574;BME280;62840;52.366;5.980;2023-05-25T03:04:51;102609.31;;;8.00;66.37
69574;BME280;62840;52.366;5.980;2023-05-25T03:07:45;102604.88;;;8.01;66.46
69574;BME280;62840;52.366;5.980;2023-05-25T03:10:19;102602.28;;;7.99;66.22
69574;BME280;62840;52.366;5.980;2023-05-25T03:13:02;102591.66;;;7.99;66.32
69574;BME280;62840;52.366;5.980;2023-05-25T03:15:32;102594.31;;;7.99;66.10
69574;BME280;62840;52.366;5.980;2023-05-25T03:18:00;102600.47;;;8.00;66.30
69574;BME280;62840;52.366;5.980;2023-05-25T03:20:26;102600.53;;;7.98;66.46
69574;BME280;62840;52.366;5.980;2023-05-25T03:23:12;102613.78;;;8.00;66.55
69574;BME280;62840;52.366;5.980;2023-05-25T03:25:51;102611.16;;;7.98;66.49
69574;BME280;62840;52.366;5.980;2023-05-25T03:28:25;102613.81;;;7.98;66.42
69574;BME280;62840;52.366;5.980;2023-05-25T03:31:05;102609.47;;;7.97;66.47
69574;BME280;62840;52.366;5.980;2023-05-25T03:33:40;102613.03;;;7.96;66.56
69574;BME280;62840;52.366;5.980;2023-05-25T03:36:09;102615.78;;;7.94;66.55
69574;BME280;62840;52.366;5.980;2023-05-25T03:38:54;102620.09;;;7.97;66.30
69574;BME280;62840;52.366;5.980;2023-05-25T03:41:25;102621.78;;;7.98;66.33
69574;BME280;62840;52.366;5.980;2023-05-25T03:44:07;102605.00;;;7.98;66.33
69574;BME280;62840;52.366;5.980;2023-05-25T03:46:36;102604.13;;;7.97;66.53
69574;BME280;62840;52.366;5.980;2023-05-25T03:49:08;102608.59;;;7.96;66.70
69574;BME280;62840;52.366;5.980;2023-05-25T03:51:48;102611.16;;;7.98;66.56
69574;BME280;62840;52.366;5.980;2023-05-25T03:54:19;102609.31;;;8.00;66.61
69574;BME280;62840;52.366;5.980;2023-05-25T03:57:09;102606.59;;;8.02;66.66
69574;BME280;62840;52.366;5.980;2023-05-25T04:00:22;102609.31;;;8.00;66.53
69574;BME280;62840;52.366;5.980;2023-05-25T04:02:43;102612.75;;;8.02;66.60
69574;BME280;62840;52.366;5.980;2023-05-25T04:05:12;102616.22;;;8.04;66.66
69574;BME280;62840;52.366;5.980;2023-05-25T04:07:48;102613.56;;;8.04;66.73
69574;BME280;62840;52.366;5.980;2023-05-25T04:10:28;102614.38;;;8.06;66.61
69574;BME280;62840;52.366;5.980;2023-05-25T04:12:58;102623.28;;;8.05;66.84
69574;BME280;62840;52.366;5.980;2023-05-25T04:15:33;102621.41;;;8.07;66.75
69574;BME280;62840;52.366;5.980;2023-05-25T04:18:05;102629.31;;;8.09;66.85
69574;BME280;62840;52.366;5.980;2023-05-25T04:20:45;102631.91;;;8.10;66.52
69574;BME280;62840;52.366;5.980;2023-05-25T04:23:15;102626.53;;;8.12;66.55
69574;BME280;62840;52.366;5.980;2023-05-25T04:26:08;102627.31;;;8.14;66.79
69574;BME280;62840;52.366;5.980;2023-05-25T04:28:45;102630.84;;;8.14;66.70
69574;BME280;62840;52.366;5.980;2023-05-25T04:31:31;102622.88;;;8.14;66.80
69574;BME280;62840;52.366;5.980;2023-05-25T04:34:02;102633.50;;;8.14;66.83
69574;BME280;62840;52.366;5.980;2023-05-25T04:36:47;102630.75;;;8.16;66.96
69574;BME280;62840;52.366;5.980;2023-05-25T04:39:22;102631.50;;;8.20;66.90
69574;BME280;62840;52.366;5.980;2023-05-25T04:42:06;102637.63;;;8.22;66.95
69574;BME280;62840;52.366;5.980;2023-05-25T04:44:40;102632.25;;;8.23;67.03
69574;BME280;62840;52.366;5.980;2023-05-25T04:47:25;102624.19;;;8.25;67.18
69574;BME280;62840;52.366;5.980;2023-05-25T04:50:08;102636.25;;;8.32;66.99
69574;BME280;62840;52.366;5.980;2023-05-25T04:52:42;102639.59;;;8.37;67.12
69574;BME280;62840;52.366;5.980;2023-05-25T04:58:41;102642.91;;;8.42;67.04
69574;BME280;62840;52.366;5.980;2023-05-25T05:01:20;102636.44;;;8.48;67.25
69574;BME280;62840;52.366;5.980;2023-05-25T05:03:53;102644.22;;;8.52;67.25
69574;BME280;62840;52.366;5.980;2023-05-25T05:06:34;102645.81;;;8.56;67.52
69574;BME280;62840;52.366;5.980;2023-05-25T05:09:10;102645.53;;;8.63;67.29
69574;BME280;62840;52.366;5.980;2023-05-25T05:11:57;102650.59;;;8.69;67.45
69574;BME280;62840;52.366;5.980;2023-05-25T05:14:25;102659.22;;;8.74;67.49
69574;BME280;62840;52.366;5.980;2023-05-25T05:16:54;102664.25;;;8.80;67.59
69574;BME280;62840;52.366;5.980;2023-05-25T05:19:31;102659.50;;;8.87;67.41
69574;BME280;62840;52.366;5.980;2023-05-25T05:22:09;102654.78;;;8.93;67.42
69574;BME280;62840;52.366;5.980;2023-05-25T05:24:43;102653.59;;;8.99;67.48
69574;BME280;62840;52.366;5.980;2023-05-25T05:27:23;102659.50;;;9.06;67.55
69574;BME280;62840;52.366;5.980;2023-05-25T05:30:09;102666.25;;;9.13;67.58
69574;BME280;62840;52.366;5.980;2023-05-25T05:32:41;102673.03;;;9.20;67.55
69574;BME280;62840;52.366;5.980;2023-05-25T05:35:29;102676.19;;;9.28;67.71
69574;BME280;62840;52.366;5.980;2023-05-25T05:37:59;102675.94;;;9.34;67.75
69574;BME280;62840;52.366;5.980;2023-05-25T05:40:36;102678.22;;;9.42;67.65
69574;BME280;62840;52.366;5.980;2023-05-25T05:43:17;102675.19;;;9.50;67.77
69574;BME280;62840;52.366;5.980;2023-05-25T05:45:52;102694.31;;;9.58;67.69
69574;BME280;62840;52.366;5.980;2023-05-25T05:48:28;102695.75;;;9.65;67.71
69574;BME280;62840;52.366;5.980;2023-05-25T05:50:59;102685.56;;;9.73;67.51
69574;BME280;62840;52.366;5.980;2023-05-25T05:53:36;102696.72;;;9.81;67.70
69574;BME280;62840;52.366;5.980;2023-05-25T05:56:11;102690.94;;;9.91;67.60
69574;BME280;62840;52.366;5.980;2023-05-25T05:58:45;102696.66;;;10.00;67.92
69574;BME280;62840;52.366;5.980;2023-05-25T06:01:21;102697.06;;;10.10;67.82
69574;BME280;62840;52.366;5.980;2023-05-25T06:04:03;102710.72;;;10.21;68.06
69574;BME280;62840;52.366;5.980;2023-05-25T06:06:49;102708.34;;;10.33;67.77
69574;BME280;62840;52.366;5.980;2023-05-25T06:09:24;102718.53;;;10.42;68.02
69574;BME280;62840;52.366;5.980;2023-05-25T06:11:55;102709.97;;;10.53;68.07
69574;BME280;62840;52.366;5.980;2023-05-25T06:14:37;102720.19;;;10.62;68.19
69574;BME280;62840;52.366;5.980;2023-05-25T06:17:14;102714.25;;;10.73;68.39
69574;BME280;62840;52.366;5.980;2023-05-25T06:19:46;102715.56;;;10.81;68.38
69574;BME280;62840;52.366;5.980;2023-05-25T06:22:35;102715.97;;;10.91;68.40
69574;BME280;62840;52.366;5.980;2023-05-25T06:25:02;102715.47;;;11.00;68.28
69574;BME280;62840;52.366;5.980;2023-05-25T06:27:49;102714.97;;;11.10;68.26
69574;BME280;62840;52.366;5.980;2023-05-25T06:33:08;102722.16;;;11.25;68.37
69574;BME280;62840;52.366;5.980;2023-05-25T06:35:45;102729.66;;;11.34;68.52
69574;BME280;62840;52.366;5.980;2023-05-25T06:38:21;102727.38;;;11.42;68.30
69574;BME280;62840;52.366;5.980;2023-05-25T06:41:02;102730.50;;;11.50;68.32
69574;BME280;62840;52.366;5.980;2023-05-25T06:43:37;102731.88;;;11.58;68.38
69574;BME280;62840;52.366;5.980;2023-05-25T06:46:09;102729.91;;;11.61;68.18
69574;BME280;62840;52.366;5.980;2023-05-25T06:48:41;102727.75;;;11.68;68.43
69574;BME280;62840;52.366;5.980;2023-05-25T06:51:31;102736.16;;;11.76;68.64
69574;BME280;62840;52.366;5.980;2023-05-25T06:53:59;102739.47;;;11.81;68.41
69574;BME280;62840;52.366;5.980;2023-05-25T06:56:33;102741.75;;;11.87;67.92
69574;BME280;62840;52.366;5.980;2023-05-25T06:59:05;102753.06;;;11.93;68.26
69574;BME280;62840;52.366;5.980;2023-05-25T07:01:38;102749.94;;;12.00;68.37
69574;BME280;62840;52.366;5.980;2023-05-25T07:04:38;102752.34;;;12.05;68.22
69574;BME280;62840;52.366;5.980;2023-05-25T07:07:11;102745.88;;;12.09;68.31
69574;BME280;62840;52.366;5.980;2023-05-25T07:10:02;102751.78;;;12.14;67.99
69574;BME280;62840;52.366;5.980;2023-05-25T07:12:35;102749.72;;;12.19;68.17
69574;BME280;62840;52.366;5.980;2023-05-25T07:15:08;102745.06;;;12.23;68.24
69574;BME280;62840;52.366;5.980;2023-05-25T07:17:51;102752.63;;;12.30;68.10
69574;BME280;62840;52.366;5.980;2023-05-25T07:20:27;102756.69;;;12.38;67.78
69574;BME280;62840;52.366;5.980;2023-05-25T07:22:56;102758.13;;;12.43;67.77
69574;BME280;62840;52.366;5.980;2023-05-25T07:25:32;102757.94;;;12.46;67.73
69574;BME280;62840;52.366;5.980;2023-05-25T07:28:26;102762.06;;;12.52;67.78
69574;BME280;62840;52.366;5.980;2023-05-25T07:30:56;102759.97;;;12.57;67.64
69574;BME280;62840;52.366;5.980;2023-05-25T07:33:25;102768.59;;;12.62;67.46
69574;BME280;62840;52.366;5.980;2023-05-25T07:35:57;102770.88;;;12.68;67.57
69574;BME280;62840;52.366;5.980;2023-05-25T07:38:31;102769.75;;;12.72;67.51
69574;BME280;62840;52.366;5.980;2023-05-25T07:41:09;102774.75;;;12.79;67.21
69574;BME280;62840;52.366;5.980;2023-05-25T07:43:52;102769.03;;;12.85;67.10
69574;BME280;62840;52.366;5.980;2023-05-25T07:46:41;102765.94;;;12.91;67.16
69574;BME280;62840;52.366;5.980;2023-05-25T07:49:08;102767.56;;;12.93;66.91
69574;BME280;62840;52.366;5.980;2023-05-25T07:51:42;102768.81;;;13.02;66.82
69574;BME280;62840;52.366;5.980;2023-05-25T07:54:11;102764.63;;;13.12;66.58
69574;BME280;62840;52.366;5.980;2023-05-25T07:56:52;102755.31;;;13.18;66.68
69574;BME280;62840;52.366;5.980;2023-05-25T07:59:23;102762.28;;;13.21;66.49
69574;BME280;62840;52.366;5.980;2023-05-25T08:01:53;102765.56;;;13.26;66.03
69574;BME280;62840;52.366;5.980;2023-05-25T08:04:37;102771.50;;;13.31;65.64
69574;BME280;62840;52.366;5.980;2023-05-25T08:07:08;102781.06;;;13.35;65.60
69574;BME280;62840;52.366;5.980;2023-05-25T08:12:40;102775.50;;;13.38;65.57
69574;BME280;62840;52.366;5.980;2023-05-25T08:15:20;102779.72;;;13.42;65.36
69574;BME280;62840;52.366;5.980;2023-05-25T08:17:51;102784.09;;;13.43;65.32
69574;BME280;62840;52.366;5.980;2023-05-25T08:23:15;102781.88;;;13.50;64.82
69574;BME280;62840;52.366;5.980;2023-05-25T08:25:49;102789.66;;;13.54;64.85
69574;BME280;62840;52.366;5.980;2023-05-25T08:28:22;102782.00;;;13.63;64.86
69574;BME280;62840;52.366;5.980;2023-05-25T08:30:50;102789.44;;;13.72;64.68
69574;BME280;62840;52.366;5.980;2023-05-25T08:33:26;102792.69;;;13.77;64.48
69574;BME280;62840;52.366;5.980;2023-05-25T08:35:55;102795.19;;;13.80;63.98
69574;BME280;62840;52.366;5.980;2023-05-25T08:41:18;102789.22;;;13.89;63.72
69574;BME280;62840;52.366;5.980;2023-05-25T08:43:54;102796.88;;;13.95;63.72
69574;BME280;62840;52.366;5.980;2023-05-25T08:46:31;102799.34;;;13.98;63.41
69574;BME280;62840;52.366;5.980;2023-05-25T08:49:21;102792.91;;;14.01;63.44
69574;BME280;62840;52.366;5.980;2023-05-25T08:52:03;102799.03;;;14.03;63.45
69574;BME280;62840;52.366;5.980;2023-05-25T08:54:44;102794.13;;;14.10;63.20
69574;BME280;62840;52.366;5.980;2023-05-25T08:57:28;102797.16;;;14.18;63.32
69574;BME280;62840;52.366;5.980;2023-05-25T09:00:18;102793.31;;;14.22;63.14
69574;BME280;62840;52.366;5.980;2023-05-25T09:02:54;102798.69;;;14.22;62.78
69574;BME280;62840;52.366;5.980;2023-05-25T09:05:24;102799.41;;;14.24;62.51
69574;BME280;62840;52.366;5.980;2023-05-25T09:07:50;102798.47;;;14.25;62.56
69574;BME280;62840;52.366;5.980;2023-05-25T09:10:17;102802.84;;;14.26;62.41
69574;BME280;62840;52.366;5.980;2023-05-25T09:12:46;102795.56;;;14.28;62.26
69574;BME280;62840;52.366;5.980;2023-05-25T09:15:18;102803.44;;;14.31;62.09
69574;BME280;62840;52.366;5.980;2023-05-25T09:17:44;102806.75;;;14.35;61.67
69574;BME280;62840;52.366;5.980;2023-05-25T09:20:11;102803.97;;;14.36;61.56
69574;BME280;62840;52.366;5.980;2023-05-25T09:22:37;102809.13;;;14.39;61.60
69574;BME280;62840;52.366;5.980;2023-05-25T09:25:05;102807.19;;;14.41;61.48
69574;BME280;62840;52.366;5.980;2023-05-25T09:27:34;102814.09;;;14.46;61.30
69574;BME280;62840;52.366;5.980;2023-05-25T09:30:01;102813.88;;;14.49;61.36
69574;BME280;62840;52.366;5.980;2023-05-25T09:32:31;102813.69;;;14.52;61.07
69574;BME280;62840;52.366;5.980;2023-05-25T09:35:08;102812.50;;;14.56;60.26
69574;BME280;62840;52.366;5.980;2023-05-25T09:37:39;102809.59;;;14.59;60.54
69574;BME280;62840;52.366;5.980;2023-05-25T09:40:06;102817.34;;;14.64;60.44
69574;BME280;62840;52.366;5.980;2023-05-25T09:42:34;102806.19;;;14.70;60.34
69574;BME280;62840;52.366;5.980;2023-05-25T09:45:01;102808.59;;;14.74;59.82
69574;BME280;62840;52.366;5.980;2023-05-25T09:47:30;102812.78;;;14.78;59.57
69574;BME280;62840;52.366;5.980;2023-05-25T09:49:57;102811.72;;;14.81;59.72
69574;BME280;62840;52.366;5.980;2023-05-25T09:52:23;102813.31;;;14.84;59.64
69574;BME280;62840;52.366;5.980;2023-05-25T09:54:50;102816.75;;;14.86;59.94
69574;BME280;62840;52.366;5.980;2023-05-25T09:57:18;102818.28;;;14.90;59.52
69574;BME280;62840;52.366;5.980;2023-05-25T09:59:45;102815.47;;;14.91;59.52
69574;BME280;62840;52.366;5.980;2023-05-25T10:02:14;102819.75;;;14.94;59.74
69574;BME280;62840;52.366;5.980;2023-05-25T10:04:42;102816.88;;;14.97;59.62
69574;BME280;62840;52.366;5.980;2023-05-25T10:07:11;102819.34;;;15.00;59.69
69574;BME280;62840;52.366;5.980;2023-05-25T10:09:40;102822.78;;;15.02;59.64
69574;BME280;62840;52.366;5.980;2023-05-25T10:12:14;102817.09;;;15.07;59.27
69574;BME280;62840;52.366;5.980;2023-05-25T10:14:45;102818.69;;;15.09;59.28
69574;BME280;62840;52.366;5.980;2023-05-25T10:17:19;102820.19;;;15.13;59.42
69574;BME280;62840;52.366;5.980;2023-05-25T10:19:54;102833.53;;;15.15;59.07
69574;BME280;62840;52.366;5.980;2023-05-25T10:22:31;102829.75;;;15.17;59.05
69574;BME280;62840;52.366;5.980;2023-05-25T10:25:07;102835.03;;;15.19;58.64
69574;BME280;62840;52.366;5.980;2023-05-25T10:27:39;102832.22;;;15.20;58.80
69574;BME280;62840;52.366;5.980;2023-05-25T10:30:09;102835.66;;;15.22;58.89
69574;BME280;62840;52.366;5.980;2023-05-25T10:32:38;102836.94;;;15.30;58.46
69574;BME280;62840;52.366;5.980;2023-05-25T10:35:18;102838.47;;;15.34;58.39
69574;BME280;62840;52.366;5.980;2023-05-25T10:37:50;102834.81;;;15.35;58.44
69574;BME280;62840;52.366;5.980;2023-05-25T10:40:20;102842.75;;;15.36;58.86
69574;BME280;62840;52.366;5.980;2023-05-25T10:42:46;102839.22;;;15.36;59.00
69574;BME280;62840;52.366;5.980;2023-05-25T10:45:19;102837.50;;;15.35;58.80
69574;BME280;62840;52.366;5.980;2023-05-25T10:47:46;102840.91;;;15.37;58.35
69574;BME280;62840;52.366;5.980;2023-05-25T10:50:21;102839.97;;;15.38;58.07
69574;BME280;62840;52.366;5.980;2023-05-25T10:52:57;102832.66;;;15.40;58.09
69574;BME280;62840;52.366;5.980;2023-05-25T10:55:27;102834.16;;;15.44;58.26
69574;BME280;62840;52.366;5.980;2023-05-25T10:58:06;102837.25;;;15.51;58.04
69574;BME280;62840;52.366;5.980;2023-05-25T11:00:33;102836.03;;;15.55;57.91
69574;BME280;62840;52.366;5.980;2023-05-25T11:02:59;102835.63;;;15.61;58.01
69574;BME280;62840;52.366;5.980;2023-05-25T11:05:36;102830.56;;;15.69;57.24
69574;BME280;62840;52.366;5.980;2023-05-25T11:08:04;102828.47;;;15.73;57.58
69574;BME280;62840;52.366;5.980;2023-05-25T11:10:52;102838.19;;;15.75;56.33
69574;BME280;62840;52.366;5.980;2023-05-25T11:13:31;102840.13;;;15.73;56.51
69574;BME280;62840;52.366;5.980;2023-05-25T11:16:26;102840.31;;;15.70;56.20
69574;BME280;62840;52.366;5.980;2023-05-25T11:18:57;102832.59;;;15.65;56.73
69574;BME280;62840;52.366;5.980;2023-05-25T11:21:44;102838.22;;;15.62;56.30
69574;BME280;62840;52.366;5.980;2023-05-25T11:24:14;102838.63;;;15.56;56.70
69574;BME280;62840;52.366;5.980;2023-05-25T11:26:57;102847.69;;;15.55;57.25
69574;BME280;62840;52.366;5.980;2023-05-25T11:29:24;102845.94;;;15.54;57.30
69574;BME280;62840;52.366;5.980;2023-05-25T11:31:52;102838.88;;;15.53;57.42
69574;BME280;62840;52.366;5.980;2023-05-25T11:34:22;102835.44;;;15.51;57.51
69574;BME280;62840;52.366;5.980;2023-05-25T11:36:56;102832.75;;;15.51;57.57
69574;BME280;62840;52.366;5.980;2023-05-25T11:39:24;102838.22;;;15.50;57.24
69574;BME280;62840;52.366;5.980;2023-05-25T11:41:57;102831.75;;;15.52;57.15
69574;BME280;62840;52.366;5.980;2023-05-25T11:44:29;102829.81;;;15.54;57.38
69574;BME280;62840;52.366;5.980;2023-05-25T11:47:00;102832.19;;;15.59;57.28
69574;BME280;62840;52.366;5.980;2023-05-25T11:49:27;102819.38;;;15.62;57.02
69574;BME280;62840;52.366;5.980;2023-05-25T11:51:56;102820.88;;;15.67;56.85
69574;BME280;62840;52.366;5.980;2023-05-25T11:54:23;102817.72;;;15.73;56.79
69574;BME280;62840;52.366;5.980;2023-05-25T11:56:51;102814.69;;;15.77;56.64
69574;BME280;62840;52.366;5.980;2023-05-25T11:59:18;102824.44;;;15.80;56.81
69574;BME280;62840;52.366;5.980;2023-05-25T12:01:54;102816.88;;;15.85;56.39
69574;BME280;62840;52.366;5.980;2023-05-25T12:04:24;102823.00;;;15.87;55.88
69574;BME280;62840;52.366;5.980;2023-05-25T12:06:51;102809.53;;;15.87;55.91
69574;BME280;62840;52.366;5.980;2023-05-25T12:09:27;102808.69;;;15.87;55.82
69574;BME280;62840;52.366;5.980;2023-05-25T12:11:53;102813.19;;;15.86;55.43
69574;BME280;62840;52.366;5.980;2023-05-25T12:14:22;102805.00;;;15.88;55.18
69574;BME280;62840;52.366;5.980;2023-05-25T12:16:51;102796.34;;;15.95;55.36
69574;BME280;62840;52.366;5.980;2023-05-25T12:19:18;102796.91;;;16.00;55.18
69574;BME280;62840;52.366;5.980;2023-05-25T12:21:46;102790.31;;;16.04;55.11
69574;BME280;62840;52.366;5.980;2023-05-25T12:24:12;102793.63;;;16.08;54.94
69574;BME280;62840;52.366;5.980;2023-05-25T12:26:51;102788.13;;;16.10;54.42
69574;BME280;62840;52.366;5.980;2023-05-25T12:29:18;102783.50;;;16.12;54.91
69574;BME280;62840;52.366;5.980;2023-05-25T12:31:46;102777.97;;;16.13;55.10
69574;BME280;62840;52.366;5.980;2023-05-25T12:34:15;102778.84;;;16.14;54.96
69574;BME280;62840;52.366;5.980;2023-05-25T12:36:44;102779.69;;;16.14;54.37
69574;BME280;62840;52.366;5.980;2023-05-25T12:39:13;102776.03;;;16.15;54.12
69574;BME280;62840;52.366;5.980;2023-05-25T12:41:50;102772.25;;;16.18;54.26
69574;BME280;62840;52.366;5.980;2023-05-25T12:44:23;102778.16;;;16.23;54.02
69574;BME280;62840;52.366;5.980;2023-05-25T12:46:55;102779.66;;;16.27;53.90
69574;BME280;62840;52.366;5.980;2023-05-25T12:49:32;102779.66;;;16.27;54.07
69574;BME280;62840;52.366;5.980;2023-05-25T12:52:00;102779.41;;;16.30;54.38
69574;BME280;62840;52.366;5.980;2023-05-25T12:54:41;102779.53;;;16.40;53.83
69574;BME280;62840;52.366;5.980;2023-05-25T12:57:15;102783.63;;;16.45;53.60
69574;BME280;62840;52.366;5.980;2023-05-25T12:59:43;102773.81;;;16.44;53.20
69574;BME280;62840;52.366;5.980;2023-05-25T13:02:11;102779.06;;;16.46;52.82
69574;BME280;62840;52.366;5.980;2023-05-25T13:04:40;102769.41;;;16.43;52.92
69574;BME280;62840;52.366;5.980;2023-05-25T13:07:10;102776.50;;;16.44;52.63
69574;BME280;62840;52.366;5.980;2023-05-25T13:09:36;102777.34;;;16.45;52.89
69574;BME280;62840;52.366;5.980;2023-05-25T13:12:04;102779.72;;;16.50;52.70
69574;BME280;62840;52.366;5.980;2023-05-25T13:14:33;102767.47;;;16.57;53.17
69574;BME280;62840;52.366;5.980;2023-05-25T13:16:59;102760.53;;;16.65;52.91
69574;BME280;62840;52.366;5.980;2023-05-25T13:19:27;102767.63;;;16.78;52.62
69574;BME280;62840;52.366;5.980;2023-05-25T13:21:53;102768.91;;;16.85;52.22
69574;BME280;62840;52.366;5.980;2023-05-25T13:24:21;102767.78;;;16.87;51.90
69574;BME280;62840;52.366;5.980;2023-05-25T13:26:48;102764.63;;;16.94;51.89
69574;BME280;62840;52.366;5.980;2023-05-25T13:29:14;102763.16;;;17.01;51.64
69574;BME280;62840;52.366;5.980;2023-05-25T13:31:42;102751.88;;;17.07;51.10
69574;BME280;62840;52.366;5.980;2023-05-25T13:34:08;102757.91;;;17.10;51.49
69574;BME280;62840;52.366;5.980;2023-05-25T13:36:34;102757.53;;;17.15;51.33
69574;BME280;62840;52.366;5.980;2023-05-25T13:39:00;102752.34;;;17.23;51.45
69574;BME280;62840;52.366;5.980;2023-05-25T13:41:26;102747.47;;;17.28;50.83
69574;BME280;62840;52.366;5.980;2023-05-25T13:43:52;102750.63;;;17.34;50.83
69574;BME280;62840;52.366;5.980;2023-05-25T13:46:18;102749.28;;;17.39;50.40
69574;BME280;62840;52.366;5.980;2023-05-25T13:48:47;102746.19;;;17.44;50.36
69574;BME280;62840;52.366;5.980;2023-05-25T13:51:13;102746.44;;;17.52;50.22